Time;durP1;ratioP1;P1;durP2;ratioP2;P2;SDS_P1;SDS_P2;PMS_P1;PMS_P2;Temp;Humidity;BMP_temperature;BMP_pressure;BME280_temperature;BME280_humidity;BME280_pressure;Samples;Min_cycle;Max_cycle;Signal;HPM_P1;HPM_P2
2023/01/18 00:00:09;;;;;;;25.60;17.43;;;-2.60;64.00;;;;;;5124016;27;20470;-65
2023/01/18 00:02:38;;;;;;;28.20;17.90;;;-2.50;1.00;;;;;;5121652;28;20787;-65
2023/01/18 00:05:05;;;;;;;28.07;18.57;;;-2.60;1.00;;;;;;5134950;28;20537;-65
2023/01/18 00:07:32;;;;;;;24.37;18.30;;;-2.60;1.00;;;;;;5137187;27;20433;-65
2023/01/18 00:10:00;;;;;;;30.30;17.30;;;-2.50;72.10;;;;;;5128081;27;20456;-65
2023/01/18 00:12:27;;;;;;;25.57;19.77;;;-2.50;29.70;;;;;;5129067;27;20456;-65
2023/01/18 00:14:54;;;;;;;25.93;17.03;;;-2.50;99.90;;;;;;5132910;27;20459;-65
2023/01/18 00:17:21;;;;;;;24.23;17.40;;;-2.50;99.90;;;;;;5126615;27;20549;-65
2023/01/18 00:19:50;;;;;;;28.13;17.03;;;-2.60;99.90;;;;;;5122447;27;20466;-65
2023/01/18 00:22:17;;;;;;;27.37;18.00;;;-2.60;99.90;;;;;;5141624;27;20901;-65
2023/01/18 00:24:44;;;;;;;27.43;19.20;;;-2.60;19.60;;;;;;5140703;27;20464;-65
2023/01/18 00:27:11;;;;;;;32.97;18.27;;;-2.60;99.90;;;;;;5141320;27;20429;-65
2023/01/18 00:29:39;;;;;;;23.23;17.20;;;-2.50;99.90;;;;;;5140621;27;20787;-65
2023/01/18 00:32:06;;;;;;;27.27;18.97;;;-2.50;99.90;;;;;;5119994;27;20430;-65
2023/01/18 00:34:36;;;;;;;25.13;17.83;;;-2.60;29.60;;;;;;5119046;28;20475;-65
2023/01/18 00:37:05;;;;;;;22.90;16.83;;;-2.60;1.00;;;;;;5118287;28;20988;-64
2023/01/18 00:39:32;;;;;;;25.00;17.30;;;-2.70;99.90;;;;;;5118525;28;20776;-64
2023/01/18 00:44:44;;;;;;;24.63;18.40;;;-2.80;99.90;;;;;;5139257;27;20439;-64
2023/01/18 00:47:12;;;;;;;28.37;17.77;;;-2.90;99.90;;;;;;5140697;27;20436;-64
2023/01/18 00:49:39;;;;;;;27.27;18.17;;;-2.90;99.90;;;;;;5139884;27;20468;-64
2023/01/18 00:52:08;;;;;;;21.33;17.50;;;-3.00;99.90;;;;;;5129462;27;20470;-65
2023/01/18 00:54:35;;;;;;;32.00;18.23;;;-2.80;1.00;;;;;;5120426;28;20459;-65
2023/01/18 00:57:02;;;;;;;27.40;17.23;;;-2.80;1.00;;;;;;5119992;27;20741;-65
2023/01/18 00:59:29;;;;;;;25.07;16.87;;;-2.70;10.50;;;;;;5120004;28;20844;-65
2023/01/18 01:01:56;;;;;;;21.10;16.40;;;-2.70;1.00;;;;;;5124178;27;20436;-65
2023/01/18 01:07:11;;;;;;;21.90;16.80;;;-2.90;99.90;;;;;;5140178;27;20464;-65
2023/01/18 01:09:38;;;;;;;25.87;18.90;;;-2.90;99.90;;;;;;5140384;27;20505;-65
2023/01/18 01:26:04;;;;;;;23.63;18.10;;;-3.00;1.00;;;;;;5119182;28;20855;-65
2023/01/18 01:28:31;;;;;;;28.40;18.30;;;-3.10;1.00;;;;;;5119730;28;20889;-65
2023/01/18 01:30:59;;;;;;;25.13;17.07;;;-3.10;1.00;;;;;;5119625;28;20467;-65
2023/01/18 01:33:26;;;;;;;25.20;18.00;;;-3.10;99.90;;;;;;5124994;27;20494;-65
2023/01/18 01:35:56;;;;;;;28.60;17.50;;;-3.10;99.90;;;;;;5140226;27;20458;-65
2023/01/18 01:38:25;;;;;;;23.57;18.13;;;-3.00;1.00;;;;;;5139277;27;20469;-64
2023/01/18 01:40:57;;;;;;;20.37;16.10;;;-3.00;1.00;;;;;;5140043;27;20498;-64
2023/01/18 01:43:42;;;;;;;30.13;18.27;;;-2.90;96.00;;;;;;5136438;27;20462;-64
2023/01/18 01:46:19;;;;;;;24.70;17.30;;;-2.80;99.90;;;;;;5118399;28;20458;-64
2023/01/18 01:48:47;;;;;;;22.60;16.47;;;-3.00;1.00;;;;;;5119251;28;20526;-64
2023/01/18 01:51:17;;;;;;;25.33;17.20;;;-3.00;99.90;;;;;;5118708;28;20867;-64
2023/01/18 01:53:47;;;;;;;23.07;18.60;;;-3.00;99.90;;;;;;5119078;27;20459;-64
2023/01/18 01:56:14;;;;;;;24.80;16.43;;;-3.00;99.90;;;;;;5139906;27;20466;-64
2023/01/18 01:58:43;;;;;;;23.87;17.50;;;-3.20;1.00;;;;;;5139592;27;20467;-64
2023/01/18 02:01:10;;;;;;;26.03;17.40;;;-3.30;1.00;;;;;;5139612;27;20491;-64
2023/01/18 02:03:41;;;;;;;23.67;16.70;;;-3.30;1.00;;;;;;5139397;27;20838;-64
2023/01/18 02:06:30;;;;;;;22.23;16.50;;;-3.20;1.00;;;;;;5138481;27;20482;-64
2023/01/18 02:09:00;;;;;;;25.53;18.00;;;-3.30;1.00;;;;;;5119239;28;20545;-64
2023/01/18 02:11:28;;;;;;;25.33;16.87;;;-3.40;1.00;;;;;;5118736;28;20434;-64
2023/01/18 02:13:59;;;;;;;23.77;17.60;;;-3.30;1.00;;;;;;5117882;28;20515;-64
2023/01/18 02:16:39;;;;;;;23.60;17.20;;;-3.40;61.80;;;;;;5118766;28;20434;-64
2023/01/18 02:19:21;;;;;;;23.10;16.43;;;-3.40;99.90;;;;;;5118365;28;20534;-64
2023/01/18 02:21:53;;;;;;;21.53;17.77;;;-3.50;99.90;;;;;;5117539;28;20464;-64
2023/01/18 02:25:05;;;;;;;25.10;17.73;;;-3.50;99.90;;;;;;5136009;27;20462;-64
2023/01/18 02:27:42;;;;;;;22.07;17.60;;;-3.40;99.90;;;;;;5109247;27;20463;-65
2023/01/18 02:30:23;;;;;;;22.50;17.03;;;-3.50;99.90;;;;;;5139354;27;20445;-65
2023/01/18 02:33:06;;;;;;;20.80;15.93;;;-3.50;1.00;;;;;;5136842;27;20556;-65
2023/01/18 02:35:44;;;;;;;24.00;17.67;;;-3.50;1.00;;;;;;5118001;27;20470;-65
2023/01/18 02:38:15;;;;;;;21.87;15.37;;;-3.50;1.00;;;;;;5118471;28;20888;-65
2023/01/18 02:41:10;;;;;;;20.40;17.07;;;-3.40;99.90;;;;;;5118502;28;20855;-65
2023/01/18 02:46:33;;;;;;;27.83;17.40;;;-3.50;99.90;;;;;;5135037;27;20469;-64
2023/01/18 02:49:07;;;;;;;30.43;17.10;;;-3.50;99.90;;;;;;5138416;27;20918;-64
2023/01/18 02:51:34;;;;;;;24.27;16.60;;;-3.60;99.90;;;;;;5138272;27;20843;-65
2023/01/18 02:54:03;;;;;;;23.77;16.87;;;-3.60;99.90;;;;;;5137702;27;20433;-65
2023/01/18 02:56:34;;;;;;;23.57;15.13;;;-3.60;1.00;;;;;;5138247;27;20455;-65
2023/01/18 02:59:07;;;;;;;23.73;16.70;;;-3.70;1.00;;;;;;5118051;28;20498;-64
2023/01/18 03:01:41;;;;;;;27.33;17.63;;;-3.70;1.00;;;;;;5118384;28;20884;-65
2023/01/18 03:04:16;;;;;;;24.63;17.33;;;-3.70;1.00;;;;;;5117933;28;20902;-65
2023/01/18 03:06:47;;;;;;;22.60;16.30;;;-3.60;1.00;;;;;;5118082;28;20429;-65
2023/01/18 03:09:17;;;;;;;24.43;16.37;;;-3.60;1.00;;;;;;5135573;27;20465;-65
2023/01/18 03:11:53;;;;;;;22.23;16.67;;;-3.60;1.00;;;;;;5138958;27;20494;-65
2023/01/18 03:14:30;;;;;;;21.63;15.13;;;-3.60;1.00;;;;;;5138078;27;20928;-65
2023/01/18 03:17:06;;;;;;;28.50;18.60;;;-3.70;99.90;;;;;;5138547;27;20754;-65
2023/01/18 03:25:11;;;;;;;22.47;17.27;;;-3.70;49.90;;;;;;5137502;28;20452;-65
2023/01/18 03:35:59;;;;;;;23.70;16.60;;;-3.70;99.90;;;;;;5137485;28;20449;-64
2023/01/18 03:38:27;;;;;;;21.83;15.80;;;-3.70;99.90;;;;;;5137196;27;20479;-64
2023/01/18 03:40:54;;;;;;;28.63;16.63;;;-3.70;88.00;;;;;;5138297;27;20433;-64
2023/01/18 03:43:23;;;;;;;22.40;15.70;;;-3.80;59.90;;;;;;5131380;27;20467;-64
2023/01/18 03:45:55;;;;;;;24.70;17.10;;;-3.80;1.00;;;;;;5120631;28;20902;-64
2023/01/18 03:48:23;;;;;;;22.60;16.73;;;-3.80;1.00;;;;;;5133328;27;20463;-64
2023/01/18 03:50:53;;;;;;;23.73;15.90;;;-3.80;1.00;;;;;;5141735;27;20469;-64
2023/01/18 03:53:28;;;;;;;22.90;16.67;;;-3.70;1.00;;;;;;5139556;27;20458;-64
2023/01/18 03:56:01;;;;;;;22.50;16.50;;;-3.60;99.90;;;;;;5121041;28;20455;-65
2023/01/18 03:58:34;;;;;;;26.23;18.07;;;-3.60;99.90;;;;;;5121238;28;20514;-65
2023/01/18 04:01:02;;;;;;;25.37;17.47;;;-3.60;99.90;;;;;;5120572;28;20459;-65
2023/01/18 04:03:31;;;;;;;26.30;17.90;;;-3.60;41.30;;;;;;5119710;28;20823;-65
2023/01/18 04:06:00;;;;;;;26.17;18.10;;;-3.60;28.50;;;;;;5140004;27;20462;-65
2023/01/18 04:08:27;;;;;;;22.37;17.27;;;-3.60;1.00;;;;;;5135715;27;20433;-65
2023/01/18 04:10:54;;;;;;;27.53;17.90;;;-3.70;99.90;;;;;;5120203;28;20859;-65
2023/01/18 04:13:21;;;;;;;24.90;17.77;;;-3.80;99.90;;;;;;5119358;28;20479;-65
2023/01/18 04:15:49;;;;;;;25.53;16.77;;;-4.00;99.90;;;;;;5134179;27;20468;-65
2023/01/18 04:18:16;;;;;;;31.43;17.30;;;-3.80;99.90;;;;;;5141038;27;20490;-65
2023/01/18 04:20:44;;;;;;;22.13;17.03;;;-3.80;99.90;;;;;;5141450;27;20432;-65
2023/01/18 04:23:12;;;;;;;26.17;17.70;;;-3.90;99.90;;;;;;5141368;27;20437;-65
2023/01/18 04:25:40;;;;;;;28.13;17.63;;;-3.90;99.90;;;;;;5131031;27;20438;-65
2023/01/18 04:28:07;;;;;;;26.33;17.33;;;-3.90;99.90;;;;;;5120942;28;20808;-65
2023/01/18 04:30:34;;;;;;;31.23;18.33;;;-3.80;1.00;;;;;;5120863;28;20435;-65
2023/01/18 04:33:01;;;;;;;29.03;17.60;;;-3.90;1.00;;;;;;5120545;28;20464;-65
2023/01/18 04:35:28;;;;;;;24.50;16.80;;;-3.80;1.00;;;;;;5124308;27;20455;-65
2023/01/18 04:37:57;;;;;;;23.03;16.93;;;-3.90;1.00;;;;;;5140883;27;20490;-65
2023/01/18 04:40:24;;;;;;;23.90;17.03;;;-3.90;1.00;;;;;;5140891;27;20490;-65
2023/01/18 04:42:54;;;;;;;26.50;18.43;;;-3.90;1.00;;;;;;5141234;27;20440;-64
2023/01/18 04:45:22;;;;;;;25.43;16.97;;;-3.90;99.90;;;;;;5140427;27;20463;-64
2023/01/18 04:47:49;;;;;;;28.40;18.27;;;-3.90;99.90;;;;;;5120294;27;20513;-64
2023/01/18 04:50:16;;;;;;;25.57;17.60;;;-3.90;1.00;;;;;;5120370;27;20905;-64
2023/01/18 04:52:43;;;;;;;25.10;17.83;;;-4.00;1.00;;;;;;5120591;28;20463;-64
2023/01/18 04:55:14;;;;;;;22.23;16.30;;;-4.10;1.00;;;;;;5120070;28;20459;-64
2023/01/18 04:57:42;;;;;;;28.90;20.77;;;-3.90;99.90;;;;;;5133036;27;20464;-64
2023/01/18 05:00:10;;;;;;;29.90;18.90;;;-3.90;1.00;;;;;;5140646;27;20444;-64
2023/01/18 05:02:38;;;;;;;28.83;18.47;;;-3.90;1.00;;;;;;5140739;27;20562;-64
2023/01/18 05:05:06;;;;;;;27.40;18.03;;;-3.90;1.00;;;;;;5140835;27;20741;-64
2023/01/18 05:07:33;;;;;;;27.53;18.17;;;-3.90;1.00;;;;;;5130049;27;20763;-65
2023/01/18 05:10:01;;;;;;;24.43;18.20;;;-4.10;99.90;;;;;;5119984;28;20457;-65
2023/01/18 05:12:30;;;;;;;26.87;18.60;;;-4.00;99.90;;;;;;5119357;28;20441;-65
2023/01/18 05:14:57;;;;;;;26.73;17.67;;;-4.00;99.90;;;;;;5119767;28;20480;-65
2023/01/18 05:17:26;;;;;;;26.80;18.90;;;-4.10;1.00;;;;;;5123786;27;20883;-66
2023/01/18 05:19:54;;;;;;;25.80;18.40;;;-4.10;99.90;;;;;;5138156;27;20895;-66
2023/01/18 05:22:21;;;;;;;29.70;19.40;;;-4.10;99.90;;;;;;5140164;27;20517;-66
2023/01/18 05:24:49;;;;;;;25.87;18.97;;;-4.10;99.90;;;;;;5140464;27;20433;-65
2023/01/18 05:27:16;;;;;;;30.60;19.90;;;-4.10;8.80;;;;;;5139239;27;20455;-65
2023/01/18 05:29:47;;;;;;;30.37;19.17;;;-4.00;99.90;;;;;;5120623;27;20749;-65
2023/01/18 05:32:15;;;;;;;30.80;18.73;;;-4.00;1.00;;;;;;5139330;27;20462;-65
2023/01/18 05:34:42;;;;;;;28.63;19.30;;;-4.00;1.00;;;;;;5140346;27;20443;-66
2023/01/18 05:37:10;;;;;;;28.63;19.10;;;-4.00;1.00;;;;;;5139994;27;20523;-65
2023/01/18 05:39:37;;;;;;;27.20;18.97;;;-4.00;1.00;;;;;;5136144;27;21014;-65
2023/01/18 05:42:04;;;;;;;28.97;18.53;;;-4.00;1.00;;;;;;5138993;27;20531;-65
2023/01/18 05:44:31;;;;;;;31.67;20.43;;;-4.10;99.90;;;;;;5135528;27;20467;-65
2023/01/18 05:47:00;;;;;;;26.10;18.60;;;-4.00;99.90;;;;;;5140171;27;20771;-65
2023/01/18 05:49:29;;;;;;;27.37;18.70;;;-4.00;99.90;;;;;;5137907;27;20528;-65
2023/01/18 05:51:56;;;;;;;24.83;17.43;;;-4.00;99.90;;;;;;5125881;27;20466;-65
2023/01/18 05:54:23;;;;;;;27.27;17.80;;;-4.10;1.00;;;;;;5140063;27;20491;-65
2023/01/18 05:56:51;;;;;;;32.27;20.30;;;-3.90;99.90;;;;;;5139664;27;20470;-65
2023/01/18 05:59:18;;;;;;;116.40;60.50;;;-3.80;1.00;;;;;;5136759;27;20487;-65
2023/01/18 06:01:45;;;;;;;87.83;46.53;;;-3.90;92.20;;;;;;5124976;27;20511;-65
2023/01/18 06:04:13;;;;;;;53.80;32.67;;;-3.90;99.90;;;;;;5138449;27;20862;-66
2023/01/18 06:06:41;;;;;;;35.90;23.37;;;-3.80;99.90;;;;;;5139594;27;20434;-66
2023/01/18 06:09:08;;;;;;;36.73;25.03;;;-3.70;1.00;;;;;;5137973;27;20864;-66
2023/01/18 06:11:35;;;;;;;35.20;23.70;;;-3.80;99.90;;;;;;5138513;27;20463;-66
2023/01/18 06:14:02;;;;;;;31.30;21.83;;;-3.70;1.00;;;;;;5132953;27;20761;-66
2023/01/18 06:16:29;;;;;;;30.73;20.13;;;-3.50;1.00;;;;;;5133862;27;20486;-65
2023/01/18 06:18:56;;;;;;;28.83;18.90;;;-3.60;99.90;;;;;;5138078;27;20936;-65
2023/01/18 06:21:25;;;;;;;39.90;25.20;;;-3.70;99.90;;;;;;5137263;27;20519;-65
2023/01/18 06:23:52;;;;;;;34.50;21.43;;;-3.70;99.90;;;;;;5120179;27;20467;-65
2023/01/18 06:26:19;;;;;;;34.97;23.03;;;-3.70;86.20;;;;;;5138583;27;20479;-65
2023/01/18 06:28:46;;;;;;;31.30;19.47;;;-3.80;99.90;;;;;;5139240;27;20455;-65
2023/01/18 06:31:15;;;;;;;31.27;19.23;;;-3.80;99.90;;;;;;5137764;27;20891;-65
2023/01/18 06:33:42;;;;;;;25.60;18.27;;;-3.70;99.90;;;;;;5138588;27;20459;-65
2023/01/18 06:36:10;;;;;;;25.20;17.70;;;-3.70;99.90;;;;;;5130113;27;20458;-65
2023/01/18 06:38:38;;;;;;;29.70;18.47;;;-3.80;37.70;;;;;;5138685;27;20498;-65
2023/01/18 06:41:05;;;;;;;36.23;22.83;;;-3.80;1.00;;;;;;5138112;27;20433;-65
2023/01/18 06:43:33;;;;;;;31.17;20.40;;;-3.90;1.00;;;;;;5129702;27;20444;-65
2023/01/18 06:46:00;;;;;;;33.87;23.53;;;-3.90;99.90;;;;;;5131782;27;20458;-65
2023/01/18 06:48:28;;;;;;;28.53;20.20;;;-3.70;99.90;;;;;;5138085;27;20888;-66
2023/01/18 06:50:56;;;;;;;28.47;20.37;;;-3.80;99.90;;;;;;5137707;27;20490;-65
2023/01/18 06:53:24;;;;;;;26.47;19.07;;;-3.80;99.90;;;;;;5136826;27;20462;-65
2023/01/18 06:55:57;;;;;;;28.73;19.00;;;-3.90;99.90;;;;;;5134304;27;20434;-65
2023/01/18 06:58:26;;;;;;;30.03;20.07;;;-3.90;99.90;;;;;;5138705;27;20486;-66
2023/01/18 07:00:55;;;;;;;29.67;20.60;;;-3.90;99.90;;;;;;5138988;27;20741;-66
2023/01/18 07:03:22;;;;;;;27.13;19.87;;;-4.00;99.90;;;;;;5136925;27;20458;-66
2023/01/18 07:05:50;;;;;;;25.10;17.83;;;-4.00;99.90;;;;;;5137770;27;20477;-66
2023/01/18 07:08:19;;;;;;;26.00;17.13;;;-4.00;99.90;;;;;;5127761;27;20433;-66
2023/01/18 07:10:46;;;;;;;23.00;16.30;;;-4.00;99.90;;;;;;5139062;27;20462;-66
2023/01/18 07:13:15;;;;;;;35.40;21.57;;;-4.00;99.90;;;;;;5137293;27;20483;-66
2023/01/18 07:15:42;;;;;;;30.57;18.97;;;-4.10;99.90;;;;;;5123417;27;20887;-66
2023/01/18 07:18:09;;;;;;;30.50;18.70;;;-4.10;99.90;;;;;;5134853;27;20474;-66
2023/01/18 07:20:37;;;;;;;25.37;19.10;;;-4.00;99.90;;;;;;5141644;27;20444;-66
2023/01/18 07:23:05;;;;;;;25.80;17.10;;;-4.20;99.90;;;;;;5141647;27;20780;-65
2023/01/18 07:25:32;;;;;;;28.83;17.57;;;-4.20;81.50;;;;;;5142873;27;20469;-65
2023/01/18 07:27:59;;;;;;;26.13;18.30;;;-4.20;1.00;;;;;;5141053;27;20454;-65
2023/01/18 07:30:28;;;;;;;38.47;24.80;;;-4.40;1.00;;;;;;5141637;27;20462;-65
2023/01/18 07:32:55;;;;;;;32.20;19.20;;;-4.30;1.00;;;;;;5141493;27;20429;-65
2023/01/18 07:35:22;;;;;;;28.37;20.43;;;-4.30;1.00;;;;;;5142031;27;20440;-65
2023/01/18 07:37:51;;;;;;;28.60;19.17;;;-4.30;1.00;;;;;;5136152;27;20958;-65
2023/01/18 07:40:20;;;;;;;29.23;19.13;;;-4.20;1.00;;;;;;5131499;27;20494;-65
2023/01/18 07:42:47;;;;;;;27.90;18.07;;;-4.10;1.00;;;;;;5142670;27;20458;-65
2023/01/18 07:45:15;;;;;;;30.10;19.63;;;-4.20;1.00;;;;;;5136522;27;20445;-65
2023/01/18 07:47:45;;;;;;;23.70;17.80;;;-4.30;1.00;;;;;;5135245;27;20455;-65
2023/01/18 07:50:12;;;;;;;27.57;19.10;;;-4.30;1.00;;;;;;5142100;27;20847;-65
2023/01/18 07:52:40;;;;;;;27.43;18.70;;;-4.30;1.00;;;;;;5141179;27;20477;-65
2023/01/18 07:55:08;;;;;;;68.60;40.80;;;-4.30;1.00;;;;;;5142023;27;20438;-65
2023/01/18 07:57:35;;;;;;;180.53;94.50;;;-4.30;1.00;;;;;;5126983;27;20472;-65
2023/01/18 08:00:02;;;;;;;152.83;78.43;;;-4.30;1.00;;;;;;5141262;27;20465;-65
2023/01/18 08:02:29;;;;;;;90.00;50.50;;;-4.20;1.00;;;;;;5137205;27;20444;-65
2023/01/18 08:04:58;;;;;;;56.57;34.60;;;-4.20;1.00;;;;;;5141122;27;20436;-65
2023/01/18 08:07:25;;;;;;;42.83;24.70;;;-4.10;1.00;;;;;;5140935;27;20438;-65
2023/01/18 08:09:53;;;;;;;40.03;25.90;;;-4.10;1.00;;;;;;5141579;27;20461;-65
2023/01/18 08:12:20;;;;;;;33.57;23.80;;;-4.10;1.00;;;;;;5141296;27;20494;-65
2023/01/18 08:14:48;;;;;;;37.57;26.00;;;-4.00;47.30;;;;;;5137374;27;20469;-65
2023/01/18 08:17:15;;;;;;;34.30;23.70;;;-4.00;99.90;;;;;;5134126;27;20489;-65
2023/01/18 08:19:42;;;;;;;45.63;29.90;;;-3.90;99.90;;;;;;5140193;27;20774;-65
2023/01/18 08:22:11;;;;;;;37.60;24.50;;;-3.90;99.90;;;;;;5139735;27;20700;-65
2023/01/18 08:24:38;;;;;;;48.40;28.33;;;-3.90;99.90;;;;;;5138599;27;20985;-64
2023/01/18 08:27:05;;;;;;;43.43;25.90;;;-3.80;99.90;;;;;;5140277;27;20477;-65
2023/01/18 08:29:32;;;;;;;32.23;20.97;;;-3.80;81.40;;;;;;5120991;27;20487;-65
2023/01/18 08:32:01;;;;;;;57.00;33.83;;;-3.70;13.50;;;;;;5125091;27;20473;-65
2023/01/18 08:34:28;;;;;;;70.83;40.43;;;-3.60;9.00;;;;;;5137668;27;20462;-64
2023/01/18 08:36:55;;;;;;;46.33;28.87;;;-3.50;81.00;;;;;;5129486;27;20779;-65
2023/01/18 08:39:24;;;;;;;34.67;24.50;;;-3.50;99.90;;;;;;5139051;27;20950;-65
2023/01/18 08:41:51;;;;;;;34.20;21.93;;;-3.50;23.70;;;;;;5139876;27;20462;-65
2023/01/18 08:44:18;;;;;;;33.23;21.23;;;-3.40;1.00;;;;;;5139635;27;20461;-65
2023/01/18 08:46:45;;;;;;;32.17;19.00;;;-3.20;16.90;;;;;;5138717;27;20463;-65
2023/01/18 08:49:13;;;;;;;30.10;19.47;;;-3.20;1.00;;;;;;5139772;27;20755;-65
2023/01/18 08:51:40;;;;;;;28.93;18.77;;;-2.70;99.90;;;;;;5139598;27;20463;-65
2023/01/18 08:54:07;;;;;;;27.40;18.13;;;-2.60;1.00;;;;;;5141602;27;20739;-65
2023/01/18 08:56:36;;;;;;;29.93;17.33;;;-2.50;1.00;;;;;;5140019;27;20888;-65
2023/01/18 08:59:03;;;;;;;46.67;26.27;;;-2.60;99.90;;;;;;5136925;27;20565;-65
2023/01/18 09:01:30;;;;;;;32.77;21.40;;;-2.50;99.90;;;;;;5130625;27;20463;-65
2023/01/18 09:03:58;;;;;;;30.57;20.87;;;-2.50;6.20;;;;;;5132216;27;20469;-66
2023/01/18 09:06:30;;;;;;;43.37;24.50;;;-2.30;9.80;;;;;;5125318;27;20505;-65
2023/01/18 09:08:58;;;;;;;34.70;20.60;;;-2.30;1.00;;;;;;5136133;27;20932;-65
2023/01/18 09:11:25;;;;;;;26.83;19.50;;;-2.20;1.00;;;;;;5125321;27;20943;-65
2023/01/18 09:13:54;;;;;;;29.57;20.27;;;-2.00;1.00;;;;;;5139601;27;20474;-66
2023/01/18 09:16:22;;;;;;;29.30;18.67;;;-1.80;1.00;;;;;;5139435;27;20850;-66
2023/01/18 09:18:49;;;;;;;30.00;20.17;;;-1.80;1.00;;;;;;5139129;27;20535;-65
2023/01/18 09:21:17;;;;;;;28.70;20.67;;;-1.80;99.90;;;;;;5140586;27;20901;-65
2023/01/18 09:23:45;;;;;;;28.47;20.40;;;-1.80;99.90;;;;;;5139410;27;20498;-65
2023/01/18 09:26:15;;;;;;;30.63;17.67;;;-1.70;99.90;;;;;;5130648;27;20468;-65
2023/01/18 09:28:43;;;;;;;24.27;18.33;;;-1.70;99.90;;;;;;5126906;27;20463;-65
2023/01/18 09:31:12;;;;;;;20.17;15.80;;;-1.60;99.90;;;;;;5126358;27;20471;-66
2023/01/18 09:33:41;;;;;;;24.60;17.43;;;-1.60;99.90;;;;;;5123422;27;20470;-65
2023/01/18 09:36:09;;;;;;;24.80;17.77;;;-1.60;99.90;;;;;;5138033;27;20514;-66
2023/01/18 09:38:38;;;;;;;27.27;18.67;;;-1.50;99.90;;;;;;5138858;27;20426;-66
2023/01/18 09:41:07;;;;;;;26.40;17.50;;;-1.40;99.90;;;;;;5138606;27;20470;-65
2023/01/18 09:43:38;;;;;;;26.50;19.07;;;-1.30;99.90;;;;;;5133495;27;20784;-65
2023/01/18 09:46:16;;;;;;;27.50;18.70;;;-1.20;99.90;;;;;;5136589;27;20470;-65
2023/01/18 09:48:49;;;;;;;26.17;16.87;;;-1.10;99.90;;;;;;5125856;27;20607;-65
2023/01/18 09:51:21;;;;;;;27.27;18.67;;;-1.10;99.90;;;;;;5127367;27;20470;-65
2023/01/18 09:54:03;;;;;;;26.00;17.83;;;-0.90;99.90;;;;;;5134764;27;20509;-65
2023/01/18 09:56:36;;;;;;;22.90;18.03;;;-0.70;99.90;;;;;;5138129;27;20464;-66
2023/01/18 09:59:10;;;;;;;26.90;17.53;;;-0.50;99.90;;;;;;5128246;27;20466;-66
2023/01/18 10:01:38;;;;;;;27.67;18.90;;;-0.40;99.90;;;;;;5135708;27;20892;-66
2023/01/18 10:04:16;;;;;;;27.70;20.27;;;-0.20;99.90;;;;;;5136535;27;20775;-66
2023/01/18 10:06:47;;;;;;;30.60;19.20;;;0.00;99.90;;;;;;5123631;27;20474;-67
2023/01/18 10:09:19;;;;;;;27.63;17.77;;;0.10;99.90;;;;;;5132373;27;20437;-66
2023/01/18 10:11:53;;;;;;;25.70;18.03;;;0.20;99.90;;;;;;5137954;27;20545;-67
2023/01/18 10:14:28;;;;;;;30.00;19.73;;;0.30;99.90;;;;;;5137081;27;20926;-67
2023/01/18 10:16:57;;;;;;;23.77;19.63;;;0.30;76.00;;;;;;5138247;27;20899;-67
2023/01/18 10:19:29;;;;;;;27.90;18.77;;;0.40;1.00;;;;;;5130345;27;20493;-67
2023/01/18 10:22:05;;;;;;;24.90;18.63;;;0.50;1.00;;;;;;5138963;27;20486;-67
2023/01/18 10:24:42;;;;;;;28.73;19.20;;;0.60;1.00;;;;;;5138006;27;20461;-66
2023/01/18 10:27:40;;;;;;;23.40;18.20;;;0.80;1.00;;;;;;5131803;27;20474;-63
2023/01/18 10:30:33;;;;;;;25.27;18.47;;;0.90;1.00;;;;;;5138401;27;20458;-63
2023/01/18 10:33:02;;;;;;;24.43;17.33;;;1.00;1.00;;;;;;5122960;27;20461;-63
2023/01/18 10:35:34;;;;;;;24.37;17.43;;;1.10;1.00;;;;;;5135809;27;20458;-62
2023/01/18 10:38:06;;;;;;;29.20;18.97;;;1.00;1.00;;;;;;5130282;27;20473;-63
2023/01/18 10:40:34;;;;;;;25.30;17.50;;;0.90;1.00;;;;;;5134410;27;20577;-63
2023/01/18 10:43:03;;;;;;;26.50;17.77;;;0.90;1.00;;;;;;5138199;27;20549;-63
2023/01/18 10:45:33;;;;;;;28.97;19.57;;;1.10;1.00;;;;;;5136916;27;20467;-63
2023/01/18 10:48:23;;;;;;;27.00;19.87;;;1.20;1.00;;;;;;5138639;27;20482;-63
2023/01/18 10:50:53;;;;;;;25.50;17.80;;;1.30;1.00;;;;;;5136414;27;20446;-63
2023/01/18 10:53:25;;;;;;;23.93;18.10;;;1.30;1.00;;;;;;5138170;27;20839;-63
2023/01/18 10:56:00;;;;;;;23.93;18.03;;;1.50;1.00;;;;;;5137736;27;20462;-64
2023/01/18 10:58:30;;;;;;;26.90;19.87;;;1.70;1.00;;;;;;5121542;27;20554;-64
2023/01/18 11:00:59;;;;;;;22.77;18.10;;;1.80;1.00;;;;;;5127466;27;20489;-64
2023/01/18 11:03:27;;;;;;;23.37;17.40;;;2.10;1.00;;;;;;5138043;27;20489;-65
2023/01/18 11:06:03;;;;;;;22.73;18.47;;;2.10;1.00;;;;;;5138103;27;20906;-65
2023/01/18 11:08:32;;;;;;;24.30;18.27;;;2.10;1.00;;;;;;5137246;27;20462;-65
2023/01/18 11:11:01;;;;;;;23.30;18.47;;;2.20;1.00;;;;;;5131984;27;20590;-66
2023/01/18 11:13:33;;;;;;;25.23;18.97;;;2.30;1.00;;;;;;5136456;27;20501;-66
2023/01/18 11:16:14;;;;;;;22.77;16.83;;;2.30;99.90;;;;;;5137699;27;20919;-66
2023/01/18 11:19:03;;;;;;;20.33;17.00;;;2.40;1.00;;;;;;5136523;27;20481;-66
2023/01/18 11:21:44;;;;;;;24.33;16.90;;;2.50;99.90;;;;;;5129767;27;20480;-66
2023/01/18 11:24:16;;;;;;;22.63;17.53;;;2.70;99.90;;;;;;5131540;28;20469;-66
2023/01/18 11:26:56;;;;;;;25.80;20.60;;;2.80;99.90;;;;;;5137646;27;20467;-67
2023/01/18 11:29:26;;;;;;;22.00;17.37;;;2.90;99.90;;;;;;5136727;27;20891;-67
2023/01/18 11:31:54;;;;;;;19.43;16.77;;;3.20;99.90;;;;;;5136891;28;20531;-66
2023/01/18 11:34:27;;;;;;;21.70;16.77;;;3.40;99.90;;;;;;5137912;27;20864;-66
2023/01/18 11:36:56;;;;;;;22.67;15.90;;;3.20;99.90;;;;;;5138354;27;20508;-66
2023/01/18 11:39:31;;;;;;;22.00;17.00;;;3.50;99.90;;;;;;5135950;27;20463;-66
2023/01/18 11:42:21;;;;;;;19.63;15.33;;;3.70;99.90;;;;;;5137748;27;20461;-66
2023/01/18 11:45:01;;;;;;;20.03;14.63;;;3.70;99.90;;;;;;5129909;28;20441;-66
2023/01/18 11:47:37;;;;;;;20.80;15.17;;;3.80;99.90;;;;;;5137276;27;20462;-66
2023/01/18 11:50:13;;;;;;;23.93;14.97;;;3.80;99.90;;;;;;5136418;27;20444;-65
2023/01/18 11:52:50;;;;;;;18.40;14.53;;;3.90;99.90;;;;;;5136763;27;20455;-65
2023/01/18 11:55:25;;;;;;;17.23;14.03;;;4.30;99.90;;;;;;5122371;28;20446;-65
2023/01/18 11:57:53;;;;;;;18.97;14.80;;;4.60;99.90;;;;;;5137243;27;20454;-65
2023/01/18 12:00:26;;;;;;;20.73;14.03;;;4.80;99.90;;;;;;5135865;27;20509;-65
2023/01/18 12:03:11;;;;;;;21.23;15.10;;;5.00;99.90;;;;;;5132208;27;20498;-65
2023/01/18 12:05:45;;;;;;;21.90;14.00;;;5.00;99.90;;;;;;5138100;27;20465;-66
2023/01/18 12:08:50;;;;;;;20.50;14.83;;;5.00;99.90;;;;;;5140698;27;20469;-66
2023/01/18 12:11:30;;;;;;;18.63;12.90;;;5.20;99.90;;;;;;5139673;27;20552;-66
2023/01/18 12:14:02;;;;;;;16.87;13.90;;;5.60;99.90;;;;;;5122082;27;20817;-66
2023/01/18 12:16:43;;;;;;;18.73;15.03;;;5.80;99.90;;;;;;5130786;27;20437;-67
2023/01/18 12:19:31;;;;;;;15.80;13.20;;;5.90;99.90;;;;;;5141349;27;20461;-66
2023/01/18 12:22:22;;;;;;;14.07;12.20;;;6.10;99.90;;;;;;5136625;27;20560;-66
2023/01/18 12:25:03;;;;;;;15.63;13.30;;;6.00;99.90;;;;;;5124372;27;20722;-66
2023/01/18 12:27:40;;;;;;;15.90;11.77;;;5.70;99.90;;;;;;5141070;27;20553;-66
2023/01/18 12:30:36;;;;;;;17.80;12.57;;;5.80;99.90;;;;;;5139976;27;20455;-66
2023/01/18 12:33:13;;;;;;;18.53;12.23;;;5.50;99.90;;;;;;5140609;27;20458;-66
2023/01/18 12:36:12;;;;;;;17.83;13.00;;;5.20;99.90;;;;;;5133215;27;20471;-66
2023/01/18 12:38:47;;;;;;;16.30;11.57;;;5.30;99.90;;;;;;5125674;27;20488;-66
2023/01/18 12:41:42;;;;;;;16.23;11.10;;;5.30;99.90;;;;;;5139305;27;20482;-66
2023/01/18 12:44:33;;;;;;;21.73;11.70;;;5.20;99.90;;;;;;5137153;27;20467;-66
2023/01/18 12:47:14;;;;;;;16.33;11.60;;;5.10;99.90;;;;;;5123667;27;20468;-65
2023/01/18 12:49:46;;;;;;;13.30;10.57;;;5.30;99.90;;;;;;5140014;27;20498;-66
2023/01/18 12:52:15;;;;;;;15.33;11.10;;;4.90;99.90;;;;;;5139655;27;20899;-66
2023/01/18 12:54:46;;;;;;;18.83;11.60;;;5.00;99.90;;;;;;5132180;27;20583;-66
2023/01/18 12:57:16;;;;;;;17.27;11.20;;;4.90;99.90;;;;;;5139827;27;20756;-66
2023/01/18 12:59:48;;;;;;;12.80;10.60;;;4.90;99.90;;;;;;5138392;27;20447;-66
2023/01/18 13:02:24;;;;;;;15.70;10.00;;;4.80;99.90;;;;;;5132043;27;20480;-65
2023/01/18 13:04:55;;;;;;;13.47;11.27;;;4.70;99.90;;;;;;5129517;27;20473;-66
2023/01/18 13:07:29;;;;;;;16.33;11.43;;;4.50;99.90;;;;;;5135058;27;20462;-66
2023/01/18 13:09:56;;;;;;;13.83;11.57;;;4.50;99.90;;;;;;5138929;27;20461;-66
2023/01/18 13:12:26;;;;;;;14.10;10.00;;;4.60;99.90;;;;;;5136098;27;20462;-66
2023/01/18 13:15:00;;;;;;;14.63;11.00;;;4.80;99.90;;;;;;5133261;27;20903;-65
2023/01/18 13:17:32;;;;;;;12.40;9.00;;;4.80;99.90;;;;;;5136837;27;20914;-66
2023/01/18 13:20:06;;;;;;;17.07;8.77;;;4.70;99.90;;;;;;5125892;27;20470;-65
2023/01/18 13:22:42;;;;;;;19.50;15.43;;;4.40;99.90;;;;;;5137210;27;20465;-66
2023/01/18 13:25:35;;;;;;;15.67;12.17;;;4.00;99.90;;;;;;5139422;27;20488;-65
2023/01/18 13:28:13;;;;;;;11.77;9.03;;;3.90;99.90;;;;;;5134487;27;20441;-65